createdAt,value
2024-01-19T11:00:42.932Z,2.08
2024-01-19T11:05:47.515Z,3.07
2024-01-19T11:10:50.884Z,3.07
2024-01-19T11:16:00.189Z,2.54
2024-01-19T11:21:03.454Z,2.81
2024-01-19T11:26:11.400Z,3.00
2024-01-19T11:31:19.815Z,2.95
2024-01-19T11:36:49.732Z,2.69
2024-01-19T11:41:52.823Z,2.17
2024-01-19T11:46:55.940Z,2.14
2024-01-19T11:52:02.167Z,2.49
2024-01-19T11:57:24.746Z,3.00
2024-01-19T12:02:33.165Z,2.39
2024-01-19T12:07:36.360Z,2.70
2024-01-19T12:12:40.905Z,3.02
2024-01-19T12:17:45.917Z,3.57
2024-01-19T12:22:57.152Z,3.36
2024-01-19T12:28:06.950Z,3.19
2024-01-19T12:33:32.672Z,3.58
2024-01-19T12:38:36.909Z,3.41
2024-01-19T12:43:40.070Z,3.58
2024-01-19T12:48:56.649Z,2.61
2024-01-19T12:54:00.633Z,2.43
2024-01-19T12:59:09.040Z,2.46
2024-01-19T13:04:14.396Z,3.14
2024-01-19T13:09:18.756Z,3.39
2024-01-19T13:14:28.086Z,3.47
2024-01-19T13:19:31.943Z,3.40
2024-01-19T13:24:34.780Z,2.66
2024-01-19T13:29:38.554Z,3.34
2024-01-19T13:34:41.718Z,3.11
2024-01-19T13:39:44.503Z,3.45
2024-01-19T13:44:47.970Z,2.89
2024-01-19T13:49:51.672Z,2.86
2024-01-19T13:54:54.799Z,3.50
2024-01-19T13:59:58.724Z,3.07
2024-01-19T14:05:04.804Z,3.42
2024-01-19T14:10:08.836Z,3.22
2024-01-19T14:15:11.996Z,3.67
2024-01-19T14:20:14.940Z,3.33
2024-01-19T14:25:17.785Z,3.46
2024-01-19T14:30:20.906Z,3.37
2024-01-19T14:35:24.777Z,3.24
2024-01-19T14:40:28.027Z,3.11
2024-01-19T14:45:30.919Z,3.13
2024-01-19T14:50:34.623Z,3.14
2024-01-19T14:55:38.033Z,2.94
2024-01-19T15:00:41.181Z,2.83
2024-01-19T15:05:44.311Z,3.05
2024-01-19T15:10:48.179Z,2.78
2024-01-19T15:15:51.106Z,2.74
2024-01-19T15:20:53.909Z,2.89
2024-01-19T15:25:56.788Z,2.97
2024-01-19T15:30:59.916Z,2.63
2024-01-19T15:36:04.249Z,2.49
2024-01-19T15:41:07.121Z,2.43
2024-01-19T15:46:10.234Z,3.12
2024-01-19T15:51:28.116Z,2.82
2024-01-19T15:56:37.286Z,2.16
2024-01-19T16:01:42.036Z,2.32
2024-01-19T16:06:45.227Z,2.06
2024-01-19T16:11:49.698Z,2.04
2024-01-19T16:16:53.603Z,1.62
2024-01-19T16:21:57.560Z,2.10
2024-01-19T16:27:01.955Z,2.69
2024-01-19T16:32:05.581Z,1.96
2024-01-19T16:37:08.645Z,1.90
2024-01-19T16:42:11.476Z,1.69
2024-01-19T16:47:14.447Z,1.67
2024-01-19T16:52:17.559Z,1.39
2024-01-19T16:57:20.665Z,1.43
2024-01-19T17:02:23.738Z,1.38
2024-01-19T17:07:26.764Z,1.48
2024-01-19T17:12:30.588Z,1.38
2024-01-19T17:17:33.467Z,0.88
2024-01-19T17:22:36.458Z,1.00
2024-01-19T17:27:39.578Z,1.18
2024-01-19T17:32:42.502Z,1.30
2024-01-19T17:37:45.837Z,1.06
2024-01-19T17:42:49.235Z,0.98
2024-01-19T17:47:53.885Z,0.89
2024-01-19T17:52:57.566Z,0.62
2024-01-19T17:58:00.414Z,0.51
2024-01-19T18:03:06.591Z,0.52
2024-01-19T18:08:09.689Z,0.36
2024-01-19T18:13:12.645Z,0.47
2024-01-19T18:18:24.169Z,0.86
2024-01-19T18:23:33.975Z,0.43
2024-01-19T18:28:37.502Z,0.03
2024-01-19T18:33:42.680Z,0.52
2024-01-19T18:38:46.775Z,0.43
2024-01-19T18:43:49.592Z,0.46
2024-01-19T18:48:52.514Z,0.87
2024-01-19T18:53:55.445Z,0.18
2024-01-19T18:58:58.773Z,-0.39
2024-01-19T19:04:02.816Z,-0.25
2024-01-19T19:09:07.046Z,0.79
2024-01-19T19:14:11.317Z,0.33
2024-01-19T19:19:15.002Z,-0.08
2024-01-19T19:24:18.625Z,-0.05
2024-01-19T19:29:21.657Z,0.51
2024-01-19T19:34:24.498Z,0.41
2024-01-19T19:39:27.366Z,0.28
2024-01-19T19:44:30.293Z,-0.04
2024-01-19T19:49:33.183Z,0.14
2024-01-19T19:54:36.480Z,0.24
2024-01-19T19:59:39.413Z,0.61
2024-01-19T20:04:42.274Z,0.12
2024-01-19T20:09:45.125Z,0.09
2024-01-19T20:14:49.302Z,-0.06
2024-01-19T20:19:52.351Z,-0.20
2024-01-19T20:24:55.172Z,0.55
2024-01-19T20:29:58.074Z,0.29
2024-01-19T20:35:01.546Z,-0.11
2024-01-19T20:40:07.252Z,-0.06
2024-01-19T20:45:13.402Z,0.10
2024-01-19T20:50:16.475Z,-0.53
2024-01-19T20:55:19.471Z,-0.16
2024-01-19T21:00:23.775Z,-0.27
2024-01-19T21:05:27.216Z,-0.26
2024-01-19T21:10:30.483Z,-0.54
2024-01-19T21:15:34.690Z,-0.53
2024-01-19T21:20:37.665Z,-0.25
2024-01-19T21:25:40.892Z,-0.54
2024-01-19T21:30:43.885Z,-0.76
2024-01-19T21:35:47.708Z,-0.62
2024-01-19T21:40:50.797Z,-0.55
2024-01-19T21:45:53.625Z,-0.48
2024-01-19T21:50:57.269Z,-1.07
2024-01-19T21:56:01.533Z,-0.96
2024-01-19T22:01:04.944Z,-1.32
2024-01-19T22:06:09.985Z,-1.52
2024-01-19T22:11:13.111Z,-1.71
2024-01-19T22:16:17.850Z,-1.28
2024-01-19T22:21:21.219Z,-1.19
2024-01-19T22:26:24.200Z,-1.24
2024-01-19T22:31:27.237Z,-0.96
2024-01-19T22:36:30.974Z,-1.42
2024-01-19T22:41:34.058Z,-1.38
2024-01-19T22:46:37.143Z,-1.68
2024-01-19T22:51:40.423Z,-1.50
2024-01-19T22:56:43.627Z,-1.26
2024-01-19T23:01:48.445Z,-1.86
2024-01-19T23:06:51.463Z,-2.29
2024-01-19T23:11:54.606Z,-2.15
2024-01-19T23:16:57.844Z,-1.68
2024-01-19T23:22:01.924Z,-1.92
2024-01-19T23:27:05.414Z,-1.98
2024-01-19T23:32:08.956Z,-2.63
2024-01-19T23:37:12.050Z,-2.34
2024-01-19T23:42:15.241Z,-2.32
2024-01-19T23:47:18.220Z,-1.75
2024-01-19T23:52:21.207Z,-2.14
2024-01-19T23:57:24.083Z,-2.08
